Time;durP1;ratioP1;P1;durP2;ratioP2;P2;SDS_P1;SDS_P2;PMS_P1;PMS_P2;Temp;Humidity;BMP_temperature;BMP_pressure;BME280_temperature;BME280_humidity;BME280_pressure;Samples;Min_cycle;Max_cycle;Signal;HPM_P1;HPM_P2
2021/08/23 00:00:16;;;;;;;9.18;4.18;;;;;;;15.00;98.41;98921.81;4984344;28;20023;-85
2021/08/23 00:02:42;;;;;;;7.25;3.78;;;;;;;14.99;98.83;98920.03;4984319;28;20026;-85
2021/08/23 00:05:08;;;;;;;10.38;4.28;;;;;;;15.01;99.31;98924.41;4984159;28;20133;-85
2021/08/23 00:07:33;;;;;;;11.45;4.70;;;;;;;15.01;98.79;98924.41;4984276;28;20033;-85
2021/08/23 00:09:59;;;;;;;8.15;3.67;;;;;;;15.05;99.13;98925.16;4985264;28;20022;-85
2021/08/23 00:12:26;;;;;;;11.40;4.88;;;;;;;15.01;99.56;98920.88;4984290;28;20345;-85
2021/08/23 00:14:52;;;;;;;10.45;4.00;;;;;;;15.01;99.37;98928.84;4984460;28;20301;-85
2021/08/23 00:17:17;;;;;;;10.43;3.72;;;;;;;15.03;98.88;98929.66;4984642;28;20045;-85
2021/08/23 00:19:43;;;;;;;10.48;4.80;;;;;;;15.07;98.72;98936.59;4984059;28;20027;-85
2021/08/23 00:22:22;;;;;;;12.82;4.28;;;;;;;15.09;99.13;98932.97;4983925;28;20022;-85
2021/08/23 00:24:50;;;;;;;10.25;4.45;;;;;;;15.16;99.30;98928.34;4963909;28;20090;-85
2021/08/23 00:27:16;;;;;;;13.88;4.72;;;;;;;15.18;99.28;98934.44;4974018;28;20134;-85
2021/08/23 00:29:42;;;;;;;11.88;4.30;;;;;;;15.20;99.17;98929.97;4985229;28;20042;-85
2021/08/23 00:32:08;;;;;;;13.40;4.82;;;;;;;15.23;98.96;98924.56;4984104;28;20233;-85
2021/08/23 00:34:33;;;;;;;8.43;4.20;;;;;;;15.30;99.52;98931.38;4984052;28;20027;-85
2021/08/23 00:36:59;;;;;;;8.57;4.20;;;;;;;15.35;99.04;98939.19;4983945;28;20027;-85
2021/08/23 00:39:24;;;;;;;8.32;3.83;;;;;;;15.31;98.79;98933.13;4983845;28;20046;-85
2021/08/23 00:41:50;;;;;;;11.50;3.92;;;;;;;15.31;98.18;98922.50;4983909;28;20022;-85
2021/08/23 00:44:15;;;;;;;8.68;3.10;;;;;;;15.39;97.94;98927.59;4984977;28;20026;-85
2021/08/23 00:46:40;;;;;;;13.25;3.58;;;;;;;15.43;98.10;98927.44;4983841;28;20035;-85
2021/08/23 00:49:06;;;;;;;8.63;3.38;;;;;;;15.42;97.70;98931.00;4983880;28;20019;-85
2021/08/23 00:51:33;;;;;;;9.70;3.97;;;;;;;15.40;97.64;98926.69;4984112;28;20026;-85
2021/08/23 00:53:58;;;;;;;7.65;3.40;;;;;;;15.36;97.67;98920.56;4984105;28;20054;-85
2021/08/23 00:56:23;;;;;;;10.88;3.90;;;;;;;15.34;97.28;98922.41;4983734;28;20254;-85
2021/08/23 00:58:50;;;;;;;9.55;3.80;;;;;;;15.35;97.24;98913.56;4983680;28;20218;-85
2021/08/23 01:01:27;;;;;;;11.15;3.83;;;;;;;15.33;97.71;98918.03;4983459;28;20018;-85
2021/08/23 01:03:59;;;;;;;10.50;3.63;;;;;;;15.27;97.81;98915.56;5003915;23;20046;-64
2021/08/23 01:06:26;;;;;;;9.90;4.20;;;;;;;15.26;98.04;98913.84;5004367;28;20033;-65
2021/08/23 01:08:56;;;;;;;7.95;3.58;;;;;;;15.31;97.72;98911.91;5004282;28;20026;-65
2021/08/23 01:11:23;;;;;;;8.65;3.75;;;;;;;15.23;97.81;98908.66;5004145;28;20026;-65
2021/08/23 01:13:50;;;;;;;9.23;4.32;;;;;;;15.25;97.58;98912.09;5004060;28;20252;-65
2021/08/23 01:16:16;;;;;;;6.88;3.08;;;;;;;15.21;97.49;98899.88;5003190;28;20029;-64
2021/08/23 01:18:42;;;;;;;8.35;3.97;;;;;;;15.23;97.75;98902.47;5004114;28;20037;-64
2021/08/23 01:21:10;;;;;;;7.78;3.28;;;;;;;15.25;97.29;98898.84;5004157;28;20031;-64
2021/08/23 01:23:40;;;;;;;4.88;2.97;;;;;;;15.29;97.43;98908.44;5004130;28;20049;-64
2021/08/23 01:26:06;;;;;;;8.57;3.15;;;;;;;15.24;96.83;98910.38;5004126;28;20027;-64
2021/08/23 01:28:45;;;;;;;10.43;3.67;;;;;;;15.32;96.58;98913.66;5003935;28;20305;-64
2021/08/23 01:31:40;;;;;;;10.75;3.55;;;;;;;15.40;96.95;98911.63;5004051;28;20025;-64
2021/08/23 01:34:07;;;;;;;9.10;3.55;;;;;;;15.37;96.75;98914.38;5003900;28;20022;-64
2021/08/23 01:36:33;;;;;;;6.50;3.33;;;;;;;15.36;96.85;98917.94;5006472;28;20097;-64
2021/08/23 01:38:59;;;;;;;9.57;3.33;;;;;;;15.35;96.28;98924.16;5007853;28;20217;-64
2021/08/23 01:41:24;;;;;;;6.68;3.03;;;;;;;15.34;96.54;98924.22;5007554;28;20033;-64
2021/08/23 01:43:51;;;;;;;5.32;2.97;;;;;;;15.35;96.72;98917.97;5007561;28;20030;-64
2021/08/23 01:46:16;;;;;;;7.53;3.03;;;;;;;15.32;96.58;98924.25;5007486;28;20030;-64
2021/08/23 01:48:41;;;;;;;7.38;3.13;;;;;;;15.33;96.44;98910.06;5007457;28;20073;-64
2021/08/23 01:51:07;;;;;;;11.60;3.58;;;;;;;15.25;96.43;98912.09;5007411;28;20029;-64
2021/08/23 01:53:32;;;;;;;9.80;3.53;;;;;;;15.27;96.96;98899.66;5007374;28;20030;-64
2021/08/23 01:55:58;;;;;;;8.27;3.47;;;;;;;15.34;97.05;98901.19;5007291;28;20249;-64
2021/08/23 01:58:23;;;;;;;7.00;3.05;;;;;;;15.30;97.04;98904.88;5007318;28;20030;-64
2021/08/23 02:00:49;;;;;;;8.13;3.95;;;;;;;15.30;97.14;98910.16;5007015;28;20033;-64
2021/08/23 02:03:14;;;;;;;10.18;3.83;;;;;;;15.23;97.23;98914.81;5006807;28;20104;-64
2021/08/23 02:05:40;;;;;;;11.07;4.57;;;;;;;15.26;97.16;98919.16;5007141;28;20045;-64
2021/08/23 02:08:06;;;;;;;8.57;3.90;;;;;;;15.30;97.36;98914.59;5007072;28;20033;-64
2021/08/23 02:10:31;;;;;;;10.07;3.90;;;;;;;15.23;97.63;98920.09;5006880;28;20213;-64
2021/08/23 02:12:57;;;;;;;5.30;2.83;;;;;;;15.30;97.80;98912.81;5007015;28;20077;-64
2021/08/23 02:15:22;;;;;;;7.13;3.33;;;;;;;15.30;97.45;98910.16;5006949;28;20030;-64
2021/08/23 02:17:47;;;;;;;7.75;3.33;;;;;;;15.24;97.27;98905.06;5006936;28;20029;-64
2021/08/23 02:20:13;;;;;;;10.00;4.05;;;;;;;15.23;97.73;98903.34;5006831;28;20023;-64
2021/08/23 02:22:41;;;;;;;7.95;3.53;;;;;;;15.26;97.83;98905.91;5007100;28;20149;-64
2021/08/23 02:25:08;;;;;;;10.48;3.65;;;;;;;15.29;97.53;98900.50;5006767;28;20046;-64
2021/08/23 02:27:33;;;;;;;8.13;3.55;;;;;;;15.32;97.79;98908.34;5006772;28;20076;-64
2021/08/23 02:29:59;;;;;;;7.50;3.50;;;;;;;15.36;97.97;98904.66;5006712;28;20022;-64
2021/08/23 02:32:24;;;;;;;5.30;3.35;;;;;;;15.37;97.62;98906.41;5006668;28;20053;-64
2021/08/23 02:34:50;;;;;;;7.32;3.60;;;;;;;15.35;97.52;98913.56;5006801;28;20217;-64
2021/08/23 02:37:15;;;;;;;5.57;3.53;;;;;;;15.41;97.15;98912.50;5006564;28;20022;-64
2021/08/23 02:39:41;;;;;;;9.45;4.10;;;;;;;15.40;97.26;98911.63;5006447;28;20026;-64
2021/08/23 02:42:06;;;;;;;9.25;4.30;;;;;;;15.45;97.26;98914.13;5006736;28;20325;-64
2021/08/23 02:44:32;;;;;;;10.80;4.13;;;;;;;15.42;97.11;98915.09;5006241;28;20072;-64
2021/08/23 02:46:57;;;;;;;9.93;3.75;;;;;;;15.43;97.39;98916.81;5005464;28;20073;-64
2021/08/23 02:49:24;;;;;;;6.63;4.00;;;;;;;15.41;97.24;98908.03;5006341;28;20335;-64
2021/08/23 02:51:49;;;;;;;7.53;3.67;;;;;;;15.47;97.36;98905.19;5006392;28;20073;-64
2021/08/23 02:54:15;;;;;;;10.27;4.30;;;;;;;15.48;97.28;98906.06;5005992;28;20030;-64
2021/08/23 02:56:40;;;;;;;9.13;3.25;;;;;;;15.48;97.04;98909.59;5006433;28;20022;-64
2021/08/23 02:59:06;;;;;;;12.18;5.30;;;;;;;15.47;97.06;98910.50;5006107;28;20038;-64
2021/08/23 03:01:31;;;;;;;13.52;4.38;;;;;;;15.47;97.20;98902.53;5005997;28;20216;-64
2021/08/23 03:03:56;;;;;;;6.97;3.67;;;;;;;15.48;97.13;98904.28;5005827;28;20050;-64
2021/08/23 03:06:22;;;;;;;9.00;3.97;;;;;;;15.46;96.68;98906.09;5005997;28;20277;-64
2021/08/23 03:08:47;;;;;;;7.70;3.63;;;;;;;15.51;96.80;98898.88;5005980;28;20036;-64
2021/08/23 03:11:14;;;;;;;8.90;4.00;;;;;;;15.47;96.84;98902.53;5005991;28;20022;-64
2021/08/23 03:13:41;;;;;;;12.45;4.45;;;;;;;15.42;97.07;98899.19;5005869;28;20321;-64
2021/08/23 03:16:08;;;;;;;9.82;3.50;;;;;;;15.41;96.94;98900.09;5005795;28;20072;-64
2021/08/23 03:18:33;;;;;;;11.95;4.00;;;;;;;15.37;97.09;98895.81;5005522;28;20023;-64
2021/08/23 03:20:59;;;;;;;10.98;4.28;;;;;;;15.37;97.30;98900.28;5005624;28;20072;-64
2021/08/23 03:23:25;;;;;;;8.38;3.72;;;;;;;15.37;97.08;98900.28;5005667;28;20363;-64
2021/08/23 03:25:50;;;;;;;9.43;4.07;;;;;;;15.37;97.23;98906.41;5005637;28;20030;-64
2021/08/23 03:28:16;;;;;;;7.00;3.40;;;;;;;15.36;97.43;98909.97;5004540;28;20347;-64
2021/08/23 03:30:41;;;;;;;7.30;3.40;;;;;;;15.37;97.32;98908.22;5005562;28;20026;-64
2021/08/23 03:33:07;;;;;;;7.28;3.88;;;;;;;15.34;97.84;98911.78;5005477;28;20022;-64
2021/08/23 03:35:32;;;;;;;6.72;3.65;;;;;;;15.37;97.90;98905.56;5005470;28;20030;-64
2021/08/23 03:38:00;;;;;;;8.68;3.63;;;;;;;15.36;97.76;98904.66;5005390;28;20313;-64
2021/08/23 03:40:25;;;;;;;9.80;3.78;;;;;;;15.41;97.75;98912.50;5005043;28;20026;-64
2021/08/23 03:42:51;;;;;;;9.88;4.65;;;;;;;15.39;97.72;98914.31;5005323;28;20344;-64
2021/08/23 03:45:16;;;;;;;9.75;3.92;;;;;;;15.38;97.79;98913.47;5005293;28;20100;-64
2021/08/23 03:47:41;;;;;;;6.57;3.53;;;;;;;15.37;97.64;98911.72;5005248;28;20300;-64
2021/08/23 03:50:07;;;;;;;11.55;4.35;;;;;;;15.40;97.45;98908.97;5005171;28;20045;-64
2021/08/23 03:52:33;;;;;;;8.07;3.70;;;;;;;15.43;97.36;98916.81;5004984;28;20241;-64
2021/08/23 03:54:58;;;;;;;6.50;4.00;;;;;;;15.51;96.84;98908.59;5005355;28;20026;-64
2021/08/23 03:57:23;;;;;;;9.02;4.45;;;;;;;15.45;97.00;98903.50;5005052;28;20046;-63
2021/08/23 03:59:49;;;;;;;12.57;4.30;;;;;;;15.38;97.28;98905.53;5004757;28;20089;-63
2021/08/23 04:02:15;;;;;;;12.98;4.43;;;;;;;15.42;97.07;98909.78;5005017;28;20081;-63
2021/08/23 04:04:40;;;;;;;7.60;4.10;;;;;;;15.40;96.93;98901.00;5004833;28;20101;-63
2021/08/23 04:07:05;;;;;;;9.50;4.65;;;;;;;15.38;97.13;98905.53;5004924;28;20317;-63
2021/08/23 04:09:31;;;;;;;7.70;4.10;;;;;;;15.38;96.72;98899.34;5004898;28;20026;-63
2021/08/23 04:11:56;;;;;;;6.50;3.88;;;;;;;15.31;97.26;98895.97;5004560;28;20321;-63
2021/08/23 04:14:21;;;;;;;8.10;4.38;;;;;;;15.31;96.94;98905.75;5004038;28;20093;-63
2021/08/23 04:16:47;;;;;;;6.38;3.55;;;;;;;15.29;97.31;98902.28;5004223;28;20093;-63
2021/08/23 04:19:12;;;;;;;14.48;4.57;;;;;;;15.24;97.19;98905.06;5003721;28;20340;-64
2021/08/23 04:21:38;;;;;;;9.25;3.75;;;;;;;15.22;97.63;98906.91;5004735;28;20113;-64
2021/08/23 04:24:03;;;;;;;9.63;3.92;;;;;;;15.18;97.97;98903.50;5004689;28;20049;-63
2021/08/23 04:26:29;;;;;;;8.82;4.15;;;;;;;15.17;97.99;98908.84;5004619;28;20033;-63
2021/08/23 04:28:54;;;;;;;12.55;4.90;;;;;;;15.19;97.74;98907.03;5004580;28;20022;-63
2021/08/23 04:31:19;;;;;;;14.30;4.55;;;;;;;15.20;97.75;98911.41;5004587;28;20093;-63
2021/08/23 04:33:46;;;;;;;8.63;4.28;;;;;;;15.22;97.78;98906.91;5004584;28;20021;-63
2021/08/23 04:36:12;;;;;;;9.80;4.10;;;;;;;15.29;97.70;98916.41;5004524;28;20049;-63
2021/08/23 04:38:38;;;;;;;8.90;4.05;;;;;;;15.33;97.45;98910.06;5004489;28;20030;-63
2021/08/23 04:41:06;;;;;;;11.82;4.55;;;;;;;15.35;96.50;98913.56;5004414;28;20356;-63
2021/08/23 04:43:31;;;;;;;8.85;4.50;;;;;;;15.38;96.88;98908.19;5004467;28;20198;-63
2021/08/23 04:45:57;;;;;;;14.10;5.15;;;;;;;15.40;97.05;98911.63;5004438;28;20022;-63
2021/08/23 04:48:22;;;;;;;6.85;4.43;;;;;;;15.41;97.40;98913.34;5004434;28;20129;-63
2021/08/23 04:50:47;;;;;;;8.75;4.00;;;;;;;15.42;97.74;98920.41;5004451;28;20339;-63
2021/08/23 04:53:13;;;;;;;9.95;4.10;;;;;;;15.42;97.50;98924.84;5004413;28;20049;-63
2021/08/23 04:55:38;;;;;;;11.63;4.07;;;;;;;15.42;97.31;98923.06;5004374;28;20097;-64
2021/08/23 04:58:04;;;;;;;9.07;4.82;;;;;;;15.44;96.58;98917.69;5004396;28;20030;-64
2021/08/23 05:00:29;;;;;;;10.88;4.28;;;;;;;15.49;97.26;98921.03;5004263;28;20026;-64
2021/08/23 05:02:55;;;;;;;7.65;4.70;;;;;;;15.50;97.42;98913.03;5004037;28;20050;-64
2021/08/23 05:05:20;;;;;;;12.23;4.93;;;;;;;15.55;96.70;98919.06;5004295;28;20022;-64
2021/08/23 05:07:46;;;;;;;5.90;4.00;;;;;;;15.55;89.22;98919.06;5003138;28;20029;-64
2021/08/23 05:10:11;;;;;;;13.32;4.30;;;;;;;15.58;97.51;98921.59;5005027;28;20022;-64
2021/08/23 05:12:36;;;;;;;9.35;4.53;;;;;;;15.59;97.20;98931.28;5008113;28;20049;-64
2021/08/23 05:15:02;;;;;;;8.00;4.53;;;;;;;15.61;97.26;98932.13;5008109;28;20022;-64
2021/08/23 05:17:28;;;;;;;9.02;5.40;;;;;;;15.58;96.90;98928.69;5008287;28;20030;-64
2021/08/23 05:19:54;;;;;;;10.50;5.28;;;;;;;15.66;97.14;98918.69;5008023;28;20249;-64
2021/08/23 05:22:21;;;;;;;13.63;4.72;;;;;;;15.67;97.21;98923.94;5008236;28;20033;-64
2021/08/23 05:24:46;;;;;;;12.90;5.20;;;;;;;15.61;98.58;98926.81;5007941;28;20085;-64
2021/08/23 05:27:11;;;;;;;10.35;5.07;;;;;;;15.57;96.98;98925.19;5007875;28;20022;-64
2021/08/23 05:29:37;;;;;;;9.43;4.63;;;;;;;15.57;96.97;98925.19;5007819;28;20029;-64
2021/08/23 05:32:03;;;;;;;9.35;4.55;;;;;;;15.65;96.99;98923.13;5007822;28;20056;-64
2021/08/23 05:34:28;;;;;;;10.13;4.93;;;;;;;15.64;97.29;98932.00;5007740;28;20093;-64
2021/08/23 05:36:53;;;;;;;13.13;5.80;;;;;;;15.68;97.45;98928.31;5007675;28;20037;-64
2021/08/23 05:39:19;;;;;;;11.95;6.18;;;;;;;15.66;96.41;98924.84;5007644;28;20081;-64
2021/08/23 05:41:44;;;;;;;11.65;6.18;;;;;;;15.70;97.35;98926.50;5007615;28;20064;-64
2021/08/23 05:44:09;;;;;;;11.65;5.00;;;;;;;15.70;96.66;98937.13;5007561;28;20073;-64
2021/08/23 05:46:35;;;;;;;13.77;5.50;;;;;;;15.75;97.21;98927.19;5007482;28;20333;-64
2021/08/23 05:49:00;;;;;;;13.65;5.45;;;;;;;15.83;97.02;98930.44;5007481;28;20073;-64
2021/08/23 05:51:25;;;;;;;10.93;5.22;;;;;;;15.89;96.47;98930.22;5007449;28;20270;-64
2021/08/23 05:53:51;;;;;;;11.75;5.57;;;;;;;15.94;96.66;98925.59;5007421;28;20026;-64
2021/08/23 05:56:16;;;;;;;10.52;6.07;;;;;;;15.96;97.28;98930.88;5007342;28;20026;-64
2021/08/23 05:58:42;;;;;;;17.08;6.38;;;;;;;16.01;97.29;98927.09;5007272;28;20029;-64
2021/08/23 06:01:07;;;;;;;10.82;6.80;;;;;;;16.09;97.03;98930.38;5007162;28;20046;-64
2021/08/23 06:03:33;;;;;;;13.85;7.05;;;;;;;16.04;96.83;98931.47;5006963;28;20065;-64
2021/08/23 06:06:08;;;;;;;10.88;6.07;;;;;;;16.10;96.66;98931.25;5007377;28;20022;-64
2021/08/23 06:08:34;;;;;;;12.25;6.72;;;;;;;16.17;96.29;98938.91;5007116;28;20052;-64
2021/08/23 06:11:01;;;;;;;12.05;6.65;;;;;;;16.25;96.07;98936.84;5007052;28;20026;-64
2021/08/23 06:13:27;;;;;;;14.23;6.80;;;;;;;16.29;96.28;98933.16;5007021;28;20077;-64
2021/08/23 06:15:56;;;;;;;12.43;6.68;;;;;;;16.28;96.53;98928.75;5007040;28;20034;-64
2021/08/23 06:18:22;;;;;;;13.35;7.47;;;;;;;16.30;96.84;98929.56;5006950;28;20030;-64
2021/08/23 06:20:47;;;;;;;11.27;6.13;;;;;;;16.29;96.37;98933.16;5006783;28;20384;-64
2021/08/23 06:23:13;;;;;;;9.95;5.50;;;;;;;16.33;96.07;98929.44;5006826;28;20344;-64
2021/08/23 06:25:38;;;;;;;9.68;5.45;;;;;;;16.45;95.97;98929.03;5006771;28;20045;-64
2021/08/23 06:28:04;;;;;;;10.57;5.47;;;;;;;16.40;95.76;98930.97;5006744;28;20022;-64
2021/08/23 06:30:29;;;;;;;9.38;5.57;;;;;;;16.36;96.28;98929.31;5006763;28;20046;-64
2021/08/23 06:32:55;;;;;;;7.13;4.68;;;;;;;16.35;96.72;98932.91;5006632;28;20071;-64
2021/08/23 06:35:20;;;;;;;8.25;4.65;;;;;;;16.35;97.04;98927.59;5006608;28;20093;-64
2021/08/23 06:37:46;;;;;;;6.38;3.95;;;;;;;16.44;97.20;98932.63;5006563;28;20029;-64
2021/08/23 06:40:11;;;;;;;7.15;4.63;;;;;;;16.44;97.07;98931.72;5006494;28;20097;-64
2021/08/23 06:42:37;;;;;;;5.00;3.80;;;;;;;16.57;97.23;98928.56;5006535;28;20061;-64
2021/08/23 06:45:04;;;;;;;6.22;3.70;;;;;;;16.56;96.62;98932.16;5006484;28;20025;-64
2021/08/23 06:47:29;;;;;;;5.53;3.40;;;;;;;16.54;96.58;98944.63;5006449;28;20053;-64
2021/08/23 06:49:55;;;;;;;4.75;3.60;;;;;;;16.58;96.67;98930.28;5005381;28;20025;-64
2021/08/23 06:52:20;;;;;;;5.32;2.83;;;;;;;16.53;96.66;98937.56;5006351;28;20050;-64
2021/08/23 06:54:45;;;;;;;6.25;3.22;;;;;;;16.57;97.11;98933.00;5006272;28;20355;-64
2021/08/23 06:57:11;;;;;;;5.35;3.25;;;;;;;16.57;96.53;98933.88;5006233;28;20022;-64
2021/08/23 06:59:36;;;;;;;5.22;2.97;;;;;;;16.73;96.87;98934.13;5006099;28;20076;-64
2021/08/23 07:02:02;;;;;;;4.30;2.58;;;;;;;16.90;96.82;98927.22;5006121;28;20144;-64
2021/08/23 07:04:27;;;;;;;3.35;2.35;;;;;;;16.95;96.83;98929.69;5005874;28;20054;-64
2021/08/23 07:06:52;;;;;;;2.63;1.88;;;;;;;17.21;96.47;98937.47;5006093;28;20026;-64
2021/08/23 07:09:18;;;;;;;4.03;1.80;;;;;;;17.30;95.12;98936.25;5006286;28;20045;-64
2021/08/23 07:11:43;;;;;;;3.55;2.10;;;;;;;17.24;95.02;98937.34;5005949;28;20117;-64
2021/08/23 07:14:09;;;;;;;3.42;1.88;;;;;;;17.27;94.64;98937.22;5005927;28;20061;-64
2021/08/23 07:16:35;;;;;;;2.80;1.40;;;;;;;17.38;94.28;98928.81;5005834;28;20022;-64
2021/08/23 07:19:01;;;;;;;4.10;1.77;;;;;;;17.47;93.96;98937.31;5005737;28;20064;-64
2021/08/23 07:21:26;;;;;;;3.75;1.45;;;;;;;17.47;93.30;98933.78;5005757;28;20030;-64
2021/08/23 07:23:51;;;;;;;1.80;1.42;;;;;;;17.45;94.41;98940.97;5005789;28;20044;-64
2021/08/23 07:26:17;;;;;;;1.23;0.90;;;;;;;17.43;93.03;98932.19;5005672;28;20086;-64
2021/08/23 07:28:43;;;;;;;1.50;1.40;;;;;;;17.36;94.31;98930.66;5005629;28;20031;-64
2021/08/23 07:31:09;;;;;;;2.17;1.50;;;;;;;17.36;93.62;98935.97;5005580;28;20060;-64
2021/08/23 07:33:34;;;;;;;3.05;1.20;;;;;;;17.40;94.07;98934.94;5005056;28;20093;-64
2021/08/23 07:35:59;;;;;;;1.30;1.10;;;;;;;17.31;94.39;98936.19;5005460;28;20026;-64
2021/08/23 07:38:25;;;;;;;2.55;1.40;;;;;;;17.35;94.75;98934.25;5005437;28;20033;-64
2021/08/23 07:40:51;;;;;;;1.63;1.52;;;;;;;17.38;94.71;98936.78;5005345;28;20034;-64
2021/08/23 07:43:17;;;;;;;2.60;1.05;;;;;;;17.42;93.63;98941.06;5005334;28;20030;-64
2021/08/23 07:45:42;;;;;;;1.73;1.35;;;;;;;17.43;94.03;98937.50;5005282;28;20026;-64
2021/08/23 07:48:07;;;;;;;1.30;1.20;;;;;;;17.40;94.16;98937.59;5005284;28;20026;-64
2021/08/23 07:50:34;;;;;;;1.67;1.40;;;;;;;17.39;94.60;98942.06;5005180;28;20026;-64
2021/08/23 07:52:59;;;;;;;1.58;1.40;;;;;;;17.36;95.38;98939.53;5005196;28;20026;-64
2021/08/23 07:55:25;;;;;;;1.60;1.42;;;;;;;17.31;94.93;98938.88;5003983;28;20093;-64
2021/08/23 07:57:50;;;;;;;2.25;1.52;;;;;;;17.27;95.59;98943.44;5005183;28;20077;-64
2021/08/23 08:00:18;;;;;;;1.63;1.50;;;;;;;17.35;94.96;98940.47;5004963;28;20057;-64
2021/08/23 08:02:44;;;;;;;1.92;1.67;;;;;;;17.44;95.84;98939.25;5004835;28;20065;-64
2021/08/23 08:05:12;;;;;;;3.90;1.80;;;;;;;17.56;96.25;98938.72;5004981;28;20030;-64
2021/08/23 08:07:38;;;;;;;2.72;1.83;;;;;;;17.64;94.94;98940.13;5004927;28;20085;-64
2021/08/23 08:10:08;;;;;;;1.70;1.60;;;;;;;17.69;94.73;98935.50;5005150;28;20019;-64
2021/08/23 08:12:34;;;;;;;3.72;1.60;;;;;;;17.71;93.36;98938.94;5004798;28;20026;-64
2021/08/23 08:14:59;;;;;;;2.00;1.70;;;;;;;17.77;93.80;98937.78;5004877;28;20026;-64
2021/08/23 08:17:26;;;;;;;2.70;1.80;;;;;;;17.91;93.93;98935.41;5004790;28;20096;-64
2021/08/23 08:19:51;;;;;;;3.28;1.75;;;;;;;17.90;92.36;98934.53;5004682;28;20022;-64
2021/08/23 08:22:17;;;;;;;3.33;1.58;;;;;;;17.88;94.41;98935.53;5004706;28;20093;-64
2021/08/23 08:24:45;;;;;;;2.00;1.75;;;;;;;17.92;93.80;98942.47;5004666;28;20054;-64
2021/08/23 08:27:10;;;;;;;2.88;1.75;;;;;;;18.04;94.51;98941.94;5004656;28;20030;-64
2021/08/23 08:29:37;;;;;;;2.10;1.60;;;;;;;18.22;94.00;98943.78;5004893;28;20045;-64
2021/08/23 08:32:03;;;;;;;2.10;1.73;;;;;;;18.35;93.03;98942.28;5004637;28;20031;-64
2021/08/23 08:34:30;;;;;;;3.05;1.80;;;;;;;18.39;92.07;98949.22;5004595;28;20054;-64
2021/08/23 08:36:55;;;;;;;2.53;1.77;;;;;;;18.47;91.93;98942.59;5004531;28;20035;-64
2021/08/23 08:39:21;;;;;;;2.97;1.98;;;;;;;18.53;91.62;98947.66;5004474;28;20329;-64
2021/08/23 08:41:46;;;;;;;3.00;1.63;;;;;;;18.37;91.70;98956.41;5004509;28;20387;-64
2021/08/23 08:44:12;;;;;;;4.35;2.35;;;;;;;18.12;93.37;98955.75;5004125;28;20026;-64
2021/08/23 08:46:38;;;;;;;3.67;2.28;;;;;;;18.13;94.20;98957.50;5003956;28;20026;-64
2021/08/23 08:49:07;;;;;;;2.80;1.90;;;;;;;18.23;93.19;98953.50;5004487;28;20129;-64
2021/08/23 08:51:36;;;;;;;3.83;1.90;;;;;;;18.53;94.15;98954.78;5004392;28;20026;-64
2021/08/23 08:54:03;;;;;;;2.70;1.60;;;;;;;18.50;92.03;98952.25;5004450;28;20046;-64
2021/08/23 08:56:31;;;;;;;2.65;1.65;;;;;;;18.80;91.35;98956.19;5004376;28;20026;-64
2021/08/23 08:58:56;;;;;;;1.73;1.60;;;;;;;18.91;90.05;98953.84;5004229;28;20068;-64
2021/08/23 09:01:21;;;;;;;2.55;1.40;;;;;;;19.04;89.64;98950.53;5004319;28;20093;-64
2021/08/23 09:03:47;;;;;;;3.05;1.83;;;;;;;19.04;89.83;98960.34;5004082;28;20046;-64
2021/08/23 09:06:12;;;;;;;1.88;1.67;;;;;;;19.01;89.92;98957.81;5004335;28;20054;-64
2021/08/23 09:08:46;;;;;;;1.90;1.63;;;;;;;18.97;91.19;98958.91;5004250;28;20033;-64
2021/08/23 09:11:12;;;;;;;3.08;1.30;;;;;;;18.96;88.06;98957.19;5004279;28;20080;-64
2021/08/23 09:13:39;;;;;;;1.42;1.33;;;;;;;19.25;86.47;98969.97;5004195;28;20022;-64
2021/08/23 09:16:06;;;;;;;2.28;1.50;;;;;;;19.79;85.09;98972.59;5004212;28;20089;-64
2021/08/23 09:18:31;;;;;;;1.35;1.20;;;;;;;20.06;82.64;98976.50;5004187;28;20026;-64
2021/08/23 09:20:58;;;;;;;1.40;1.25;;;;;;;20.41;81.24;98978.22;5004505;28;20046;-64
2021/08/23 09:23:34;;;;;;;1.75;1.30;;;;;;;20.57;82.26;98967.59;5004154;28;20198;-64
2021/08/23 09:26:15;;;;;;;1.38;1.25;;;;;;;20.57;79.62;98979.13;5004165;28;20089;-64
2021/08/23 09:28:43;;;;;;;1.90;1.13;;;;;;;20.97;75.02;98976.03;5004124;28;20022;-64
2021/08/23 09:31:10;;;;;;;1.38;1.02;;;;;;;20.93;77.64;98977.16;5004040;28;20019;-64
2021/08/23 09:33:45;;;;;;;1.55;0.90;;;;;;;20.62;74.09;98985.09;5004075;28;20168;-64
2021/08/23 09:36:18;;;;;;;1.75;0.95;;;;;;;20.44;77.83;98988.75;5003993;28;20028;-64
2021/08/23 09:38:43;;;;;;;1.77;1.40;;;;;;;20.34;81.20;98982.19;5004038;28;20097;-64
2021/08/23 09:41:10;;;;;;;1.17;1.05;;;;;;;20.37;77.47;98992.72;5003944;28;20026;-64
2021/08/23 09:43:35;;;;;;;1.20;1.00;;;;;;;20.36;77.69;98993.66;5004006;28;20022;-64
2021/08/23 09:46:12;;;;;;;5.38;1.30;;;;;;;20.14;77.35;98995.75;5003956;28;20052;-64
2021/08/23 09:48:51;;;;;;;2.53;1.10;;;;;;;20.20;77.36;98999.91;5003932;28;20030;-64
2021/08/23 09:51:24;;;;;;;1.83;1.13;;;;;;;20.14;79.95;98995.75;5003894;28;20026;-64
2021/08/23 09:53:50;;;;;;;1.63;1.27;;;;;;;20.28;80.71;99001.22;5004114;28;20029;-64
2021/08/23 09:56:16;;;;;;;2.25;1.30;;;;;;;20.04;80.74;99007.81;5004632;28;20018;-64
2021/08/23 09:58:42;;;;;;;1.70;1.30;;;;;;;19.90;82.22;99007.63;5007303;28;20018;-64
2021/08/23 10:01:09;;;;;;;4.20;1.77;;;;;;;19.81;83.32;99008.13;5007188;28;20073;-64
2021/08/23 10:03:36;;;;;;;2.60;1.42;;;;;;;19.66;83.77;99008.00;5007079;28;20049;-64
2021/08/23 10:06:02;;;;;;;2.45;1.45;;;;;;;19.91;79.84;99004.03;5007203;28;20025;-64
2021/08/23 10:08:29;;;;;;;2.45;1.40;;;;;;;19.71;80.05;99004.16;5007251;28;20049;-64
2021/08/23 10:10:54;;;;;;;2.25;1.30;;;;;;;19.91;81.25;99009.41;5007110;28;20237;-64
2021/08/23 10:13:20;;;;;;;2.28;1.45;;;;;;;19.98;77.95;99010.81;5007068;28;20025;-64
2021/08/23 10:15:47;;;;;;;1.77;1.40;;;;;;;20.24;77.86;99002.31;5007000;28;20022;-64
2021/08/23 10:18:15;;;;;;;2.05;1.42;;;;;;;20.54;79.50;99008.72;5006982;28;20041;-64
2021/08/23 10:20:40;;;;;;;2.28;1.45;;;;;;;21.10;78.00;99003.84;5006905;28;20077;-64
2021/08/23 10:23:08;;;;;;;1.75;1.27;;;;;;;22.38;71.74;98995.41;5006875;28;20022;-64
2021/08/23 10:25:35;;;;;;;2.03;1.40;;;;;;;23.33;67.86;98992.94;5006845;28;20072;-64
2021/08/23 10:28:18;;;;;;;1.40;1.00;;;;;;;22.48;67.38;98996.56;5006830;28;20212;-64
2021/08/23 10:30:44;;;;;;;1.20;1.10;;;;;;;21.91;71.85;98986.69;5007048;28;20119;-64
2021/08/23 10:33:18;;;;;;;1.52;1.17;;;;;;;22.00;69.03;98989.69;5006736;28;20317;-64
2021/08/23 10:35:57;;;;;;;5.63;1.10;;;;;;;21.56;71.00;98991.41;5006664;28;20028;-64
2021/08/23 10:38:25;;;;;;;2.03;1.35;;;;;;;21.98;69.06;98990.72;5006637;28;20373;-64
2021/08/23 10:41:12;;;;;;;1.25;1.15;;;;;;;23.11;66.70;98988.06;5006485;28;20321;-64
2021/08/23 10:43:49;;;;;;;1.80;1.00;;;;;;;23.58;66.77;98989.50;5006578;28;20045;-64
2021/08/23 10:46:22;;;;;;;1.45;1.08;;;;;;;22.67;66.44;98994.50;5006758;28;20022;-64
2021/08/23 10:48:48;;;;;;;1.10;1.00;;;;;;;22.37;67.77;98999.06;5006427;28;20034;-64
2021/08/23 10:51:26;;;;;;;1.95;1.15;;;;;;;22.54;69.35;98985.50;5006384;28;20049;-64
2021/08/23 10:53:51;;;;;;;1.58;1.20;;;;;;;23.50;68.36;98984.63;5006333;28;20048;-64
2021/08/23 10:56:18;;;;;;;3.50;1.30;;;;;;;23.96;62.45;98987.84;5006286;28;20216;-64
2021/08/23 10:58:48;;;;;;;1.50;1.30;;;;;;;24.35;62.30;98985.97;5006273;28;20269;-64
2021/08/23 11:01:22;;;;;;;1.45;1.35;;;;;;;24.40;61.18;98983.84;5006690;28;20014;-64
2021/08/23 11:04:04;;;;;;;3.17;1.58;;;;;;;24.43;63.26;98982.75;5005865;28;20210;-64
2021/08/23 11:06:30;;;;;;;5.63;1.92;;;;;;;23.33;64.78;98992.94;5006103;28;20089;-64
2021/08/23 11:09:33;;;;;;;2.05;1.50;;;;;;;22.38;66.46;98995.41;5005462;28;20033;-64
2021/08/23 11:12:15;;;;;;;5.45;1.60;;;;;;;22.17;68.20;98991.34;5004462;28;20038;-64
2021/08/23 11:14:51;;;;;;;;;;;;;;;22.12;68.36;98990.78;5006348;28;20029;-64
2021/08/23 11:17:31;;;;;;;2.63;1.77;;;;;;;22.00;68.46;98986.13;5005932;28;20205;-64
2021/08/23 11:20:03;;;;;;;3.17;1.73;;;;;;;22.16;68.46;98989.63;5005878;28;20198;-64
2021/08/23 11:22:28;;;;;;;;;;;;;;;21.75;68.56;98993.91;5006496;28;20355;-64
2021/08/23 11:24:54;;;;;;;2.17;1.88;;;;;;;21.43;66.82;98986.84;5005758;28;19906;-64
2021/08/23 11:27:20;;;;;;;2.53;2.00;;;;;;;21.60;67.58;98978.66;5005681;28;20022;-64
2021/08/23 11:29:52;;;;;;;4.00;2.30;;;;;;;21.12;70.05;98985.91;5005615;28;20029;-64